Time;durP1;ratioP1;P1;durP2;ratioP2;P2;SDS_P1;SDS_P2;PMS_P1;PMS_P2;Temp;Humidity;BMP_temperature;BMP_pressure;BME280_temperature;BME280_humidity;BME280_pressure;Samples;Min_cycle;Max_cycle;Signal;HPM_P1;HPM_P2
2022/06/01 00:02:20;;;;;;;11.57;10.32;;;;;;;;;;5086537;28;20048;-64
2022/06/01 00:04:46;;;;;;;12.18;10.00;;;;;;;;;;5088897;28;20078;-64
2022/06/01 00:07:12;;;;;;;11.80;9.60;;;;;;;;;;5085715;28;20111;-64
2022/06/01 00:09:38;;;;;;;13.85;10.60;;;;;;;;;;5085488;28;20098;-64
2022/06/01 00:12:05;;;;;;;13.27;10.38;;;;;;;;;;5090035;28;20082;-64
2022/06/01 00:14:33;;;;;;;11.75;9.63;;;;;;;;;;5086090;28;20052;-64
2022/06/01 00:16:59;;;;;;;13.13;9.57;;;;;;;;;;5087840;28;20158;-64
2022/06/01 00:19:25;;;;;;;11.07;9.88;;;;;;;;;;5085015;28;20044;-64
2022/06/01 00:24:38;;;;;;;11.95;10.13;;;;;;;;;;5084593;28;20075;-64
2022/06/01 00:27:08;;;;;;;14.00;10.95;;;;;;;;;;5085480;28;20043;-64
2022/06/01 00:29:34;;;;;;;11.80;10.55;;;;;;;;;;5087232;28;20147;-64
2022/06/01 00:32:00;;;;;;;13.82;11.02;;;;;;;;;;5084649;28;20559;-64
2022/06/01 00:34:26;;;;;;;12.32;10.50;;;;;;;;;;5085992;28;20588;-64
2022/06/01 00:36:52;;;;;;;12.90;10.88;;;;;;;;;;5088745;28;20047;-64
2022/06/01 00:39:19;;;;;;;13.63;9.93;;;;;;;;;;5085200;28;20066;-64
2022/06/01 00:41:45;;;;;;;17.15;11.45;;;;;;;;;;5088067;28;20043;-64
2022/06/01 00:44:11;;;;;;;13.85;11.77;;;;;;;;;;5088467;28;20043;-64
2022/06/01 00:46:37;;;;;;;15.98;11.77;;;;;;;;;;5085542;28;20097;-64
2022/06/01 00:49:12;;;;;;;13.73;12.18;;;;;;;;;;5087938;28;20390;-64
2022/06/01 00:51:38;;;;;;;12.70;10.80;;;;;;;;;;5085671;28;20032;-64
2022/06/01 00:54:04;;;;;;;11.85;10.43;;;;;;;;;;5085811;28;20048;-64
2022/06/01 00:56:37;;;;;;;18.33;11.82;;;;;;;;;;5085333;28;20067;-64
2022/06/01 00:59:05;;;;;;;16.90;12.75;;;;;;;;;;5089305;28;20491;-64
2022/06/01 01:01:31;;;;;;;13.65;10.85;;;;;;;;;;5085482;28;20405;-64
2022/06/01 01:03:58;;;;;;;17.60;13.50;;;;;;;;;;5085387;28;20040;-64
2022/06/01 01:06:36;;;;;;;16.17;12.00;;;;;;;;;;5086127;27;20036;-64
2022/06/01 01:09:03;;;;;;;16.95;12.85;;;;;;;;;;5096024;27;20051;-64
2022/06/01 01:11:35;;;;;;;13.02;11.27;;;;;;;;;;5089329;27;20513;-64
2022/06/01 01:14:02;;;;;;;14.75;11.75;;;;;;;;;;5091334;28;20040;-64
2022/06/01 01:16:29;;;;;;;15.15;11.60;;;;;;;;;;5087417;27;20450;-64
2022/06/01 01:18:56;;;;;;;13.52;12.02;;;;;;;;;;5094409;28;20430;-64
2022/06/01 01:21:32;;;;;;;15.30;12.27;;;;;;;;;;5094189;27;20040;-64
2022/06/01 01:24:04;;;;;;;15.00;12.82;;;;;;;;;;5089791;28;20146;-64
2022/06/01 01:26:31;;;;;;;14.25;11.68;;;;;;;;;;5094664;28;20078;-64
2022/06/01 01:28:57;;;;;;;26.58;12.48;;;;;;;;;;5092570;28;20075;-63
2022/06/01 01:31:25;;;;;;;14.27;12.15;;;;;;;;;;5088296;27;20453;-64
2022/06/01 01:33:52;;;;;;;13.43;11.65;;;;;;;;;;5096473;27;20472;-64
2022/06/01 01:36:21;;;;;;;14.65;11.95;;;;;;;;;;5093963;28;20086;-64
2022/06/01 01:38:53;;;;;;;15.82;13.18;;;;;;;;;;5092246;27;20036;-64
2022/06/01 01:41:29;;;;;;;15.00;12.20;;;;;;;;;;5086126;27;20139;-64
2022/06/01 01:43:58;;;;;;;13.95;11.70;;;;;;;;;;5087501;27;20035;-64
2022/06/01 01:46:24;;;;;;;17.92;12.52;;;;;;;;;;5094163;27;20541;-64
2022/06/01 01:48:51;;;;;;;14.73;13.18;;;;;;;;;;5086294;27;20074;-64
2022/06/01 01:51:24;;;;;;;15.88;12.88;;;;;;;;;;5089381;27;20048;-64
2022/06/01 01:53:50;;;;;;;14.65;12.63;;;;;;;;;;5096554;27;20079;-64
2022/06/01 01:56:27;;;;;;;13.80;12.38;;;;;;;;;;5091991;28;20046;-64
2022/06/01 01:59:03;;;;;;;14.77;12.57;;;;;;;;;;5102550;27;20253;-64
2022/06/01 02:01:43;;;;;;;15.57;13.13;;;;;;;;;;5091213;28;20126;-64
2022/06/01 02:07:03;;;;;;;15.77;12.73;;;;;;;;;;5091068;27;20051;-63
2022/06/01 02:12:40;;;;;;;14.60;12.93;;;;;;;;;;5086605;28;20056;-64
2022/06/01 02:15:02;;;;;;;15.57;12.55;;;;;;;;;;5087821;27;20619;-64
2022/06/01 02:17:36;;;;;;;13.63;12.15;;;;;;;;;;5085664;28;20040;-64
2022/06/01 02:20:23;;;;;;;15.20;13.05;;;;;;;;;;5090802;27;20093;-64
2022/06/01 02:22:49;;;;;;;15.40;12.45;;;;;;;;;;5088422;28;20039;-64
2022/06/01 02:25:15;;;;;;;15.82;13.00;;;;;;;;;;5086639;28;20522;-64
2022/06/01 02:27:43;;;;;;;15.35;12.50;;;;;;;;;;5093697;27;20051;-64
2022/06/01 02:30:15;;;;;;;18.23;13.98;;;;;;;;;;5087650;27;20039;-64
2022/06/01 02:32:41;;;;;;;15.32;12.18;;;;;;;;;;5090094;27;20476;-64
2022/06/01 02:35:09;;;;;;;17.65;13.27;;;;;;;;;;5094085;27;20043;-64
2022/06/01 02:37:37;;;;;;;13.80;12.30;;;;;;;;;;5099192;27;20040;-64
2022/06/01 02:40:07;;;;;;;14.32;11.73;;;;;;;;;;5089459;27;20173;-64
2022/06/01 02:42:34;;;;;;;13.90;12.40;;;;;;;;;;5085612;28;20075;-64
2022/06/01 02:45:04;;;;;;;16.00;14.00;;;;;;;;;;5088621;27;20172;-64
2022/06/01 02:47:32;;;;;;;16.10;13.20;;;;;;;;;;5087016;27;20044;-64
2022/06/01 02:49:59;;;;;;;14.32;12.73;;;;;;;;;;5087347;27;20361;-64
2022/06/01 02:52:25;;;;;;;14.38;12.88;;;;;;;;;;5091946;28;20039;-64
2022/06/01 02:54:54;;;;;;;17.67;14.20;;;;;;;;;;5085108;27;20173;-64
2022/06/01 02:57:21;;;;;;;16.48;14.38;;;;;;;;;;5087829;28;20092;-64
2022/06/01 02:59:47;;;;;;;16.38;13.00;;;;;;;;;;5091784;27;20040;-64
2022/06/01 03:02:13;;;;;;;14.50;12.48;;;;;;;;;;5087976;28;20194;-64
2022/06/01 03:04:40;;;;;;;17.08;15.25;;;;;;;;;;5085360;28;20044;-64
2022/06/01 03:07:07;;;;;;;16.60;13.68;;;;;;;;;;5089086;27;20036;-64
2022/06/01 03:09:34;;;;;;;15.13;12.95;;;;;;;;;;5085606;27;20414;-64
2022/06/01 03:12:01;;;;;;;19.73;13.30;;;;;;;;;;5086431;28;20059;-64
2022/06/01 03:14:27;;;;;;;17.77;13.85;;;;;;;;;;5086958;27;20459;-64
2022/06/01 03:16:55;;;;;;;17.73;14.07;;;;;;;;;;5085527;28;20043;-64
2022/06/01 03:19:21;;;;;;;15.45;13.70;;;;;;;;;;5090318;28;20040;-64
2022/06/01 03:21:48;;;;;;;14.95;12.63;;;;;;;;;;5085717;27;20408;-64
2022/06/01 03:24:14;;;;;;;18.85;14.85;;;;;;;;;;5090020;28;20155;-64
2022/06/01 03:26:42;;;;;;;14.65;13.07;;;;;;;;;;5083831;28;20040;-64
2022/06/01 03:29:08;;;;;;;14.93;12.93;;;;;;;;;;5089817;28;20048;-64
2022/06/01 03:31:34;;;;;;;15.95;13.43;;;;;;;;;;5085960;27;20086;-64
2022/06/01 03:34:01;;;;;;;16.85;14.18;;;;;;;;;;5089582;28;20044;-64
2022/06/01 03:36:27;;;;;;;16.80;12.98;;;;;;;;;;5089386;28;20122;-64
2022/06/01 03:38:53;;;;;;;21.30;14.02;;;;;;;;;;5087206;27;20051;-64
2022/06/01 03:41:19;;;;;;;15.05;13.45;;;;;;;;;;5084378;28;20876;-64
2022/06/01 03:46:33;;;;;;;16.02;13.77;;;;;;;;;;5088195;27;20050;-64
2022/06/01 03:48:59;;;;;;;18.35;14.70;;;;;;;;;;5086620;28;20031;-64
2022/06/01 03:51:26;;;;;;;19.52;14.70;;;;;;;;;;5086734;27;20494;-63
2022/06/01 03:53:53;;;;;;;17.25;14.25;;;;;;;;;;5094719;27;20406;-64
2022/06/01 03:56:22;;;;;;;16.75;14.48;;;;;;;;;;5090452;28;20055;-64
2022/06/01 03:58:49;;;;;;;18.58;14.38;;;;;;;;;;5087359;27;20096;-64
2022/06/01 04:01:16;;;;;;;16.42;14.40;;;;;;;;;;5084632;27;20285;-64
2022/06/01 04:03:42;;;;;;;16.55;14.07;;;;;;;;;;5088280;27;20051;-64
2022/06/01 04:06:08;;;;;;;15.15;13.50;;;;;;;;;;5082992;28;20050;-64
2022/06/01 04:08:34;;;;;;;15.48;13.52;;;;;;;;;;5083587;28;20059;-64
2022/06/01 04:11:00;;;;;;;19.63;15.35;;;;;;;;;;5083018;28;20052;-64
2022/06/01 04:13:27;;;;;;;19.10;13.85;;;;;;;;;;5088979;28;20044;-64
2022/06/01 04:15:55;;;;;;;15.48;13.85;;;;;;;;;;5086408;28;20040;-64
2022/06/01 04:18:23;;;;;;;18.13;14.57;;;;;;;;;;5083136;27;20102;-64
2022/06/01 04:20:51;;;;;;;18.10;14.90;;;;;;;;;;5083258;28;20101;-64
2022/06/01 04:23:17;;;;;;;16.55;13.48;;;;;;;;;;5082838;28;20031;-64
2022/06/01 04:25:43;;;;;;;18.50;14.55;;;;;;;;;;5088260;28;20135;-64
2022/06/01 04:28:09;;;;;;;21.13;16.02;;;;;;;;;;5086051;28;20481;-64
2022/06/01 04:30:35;;;;;;;16.10;14.05;;;;;;;;;;5087337;28;20101;-63
2022/06/01 04:33:02;;;;;;;18.30;15.30;;;;;;;;;;5085944;28;20039;-64
2022/06/01 04:35:28;;;;;;;18.17;14.00;;;;;;;;;;5084957;28;20039;-64
2022/06/01 04:38:12;;;;;;;15.40;13.60;;;;;;;;;;5084667;28;20402;-64
2022/06/01 04:40:49;;;;;;;16.85;13.57;;;;;;;;;;5084574;28;20062;-64
2022/06/01 04:43:16;;;;;;;15.70;13.27;;;;;;;;;;5087685;28;20063;-64
2022/06/01 04:45:43;;;;;;;18.33;13.15;;;;;;;;;;5091531;27;20100;-64
2022/06/01 04:48:09;;;;;;;17.67;14.77;;;;;;;;;;5088739;27;20069;-64
2022/06/01 04:50:39;;;;;;;19.80;15.98;;;;;;;;;;5090674;28;20495;-64
2022/06/01 04:53:05;;;;;;;22.33;14.95;;;;;;;;;;5096509;27;20161;-65
2022/06/01 04:55:31;;;;;;;19.10;13.52;;;;;;;;;;5092259;28;20066;-64
2022/06/01 04:57:57;;;;;;;19.80;14.73;;;;;;;;;;5090484;27;20104;-64
2022/06/01 05:00:24;;;;;;;23.75;16.02;;;;;;;;;;5093938;28;20189;-64
2022/06/01 05:02:51;;;;;;;21.15;15.13;;;;;;;;;;5092495;28;20044;-64
2022/06/01 05:05:17;;;;;;;18.48;14.93;;;;;;;;;;5094291;28;20035;-64
2022/06/01 05:07:43;;;;;;;20.08;15.15;;;;;;;;;;5091319;27;20040;-64
2022/06/01 05:10:09;;;;;;;19.60;14.38;;;;;;;;;;5091212;27;20326;-64
2022/06/01 05:12:35;;;;;;;20.10;15.93;;;;;;;;;;5091749;28;20631;-64
2022/06/01 05:15:01;;;;;;;21.92;17.23;;;;;;;;;;5088938;27;20044;-64
2022/06/01 05:17:30;;;;;;;19.65;16.10;;;;;;;;;;5091880;27;20043;-64
2022/06/01 05:19:56;;;;;;;19.67;15.85;;;;;;;;;;5091277;28;20054;-64
2022/06/01 05:22:22;;;;;;;22.08;16.75;;;;;;;;;;5091292;28;20040;-64
2022/06/01 05:24:49;;;;;;;20.48;16.35;;;;;;;;;;5090911;27;20044;-64
2022/06/01 05:27:15;;;;;;;22.63;16.85;;;;;;;;;;5089632;28;20133;-64
2022/06/01 05:29:41;;;;;;;22.23;16.90;;;;;;;;;;5088081;27;20054;-64
2022/06/01 05:32:08;;;;;;;20.13;15.52;;;;;;;;;;5090233;27;20127;-64
2022/06/01 05:34:34;;;;;;;17.88;15.63;;;;;;;;;;5087730;28;20044;-64
2022/06/01 05:37:00;;;;;;;17.30;14.98;;;;;;;;;;5087072;28;20097;-64
2022/06/01 05:39:26;;;;;;;18.75;15.38;;;;;;;;;;5088349;28;20048;-64
2022/06/01 05:41:53;;;;;;;21.63;16.10;;;;;;;;;;5086459;28;20627;-64
2022/06/01 05:44:19;;;;;;;18.75;15.27;;;;;;;;;;5087975;27;20263;-64
2022/06/01 05:46:45;;;;;;;18.63;15.77;;;;;;;;;;5089382;27;20051;-64
2022/06/01 05:49:13;;;;;;;20.23;15.57;;;;;;;;;;5090023;27;20035;-64
2022/06/01 05:51:39;;;;;;;21.13;17.30;;;;;;;;;;5087802;27;20103;-64
2022/06/01 05:54:05;;;;;;;18.80;15.20;;;;;;;;;;5090484;27;20038;-64
2022/06/01 05:56:31;;;;;;;24.05;16.67;;;;;;;;;;5086606;28;20401;-64
2022/06/01 05:58:57;;;;;;;16.55;14.45;;;;;;;;;;5090168;27;20040;-64
2022/06/01 06:01:23;;;;;;;15.60;13.90;;;;;;;;;;5086965;28;20044;-64
2022/06/01 06:03:50;;;;;;;24.52;14.05;;;;;;;;;;5087992;27;20120;-65
2022/06/01 06:06:16;;;;;;;14.60;13.02;;;;;;;;;;5091686;27;20046;-64
2022/06/01 06:08:48;;;;;;;15.60;13.05;;;;;;;;;;5088875;27;20040;-64
2022/06/01 06:11:15;;;;;;;13.13;11.80;;;;;;;;;;5085336;27;20051;-64
2022/06/01 06:13:41;;;;;;;16.98;13.63;;;;;;;;;;5087144;28;20492;-64
2022/06/01 06:16:08;;;;;;;16.50;12.20;;;;;;;;;;5085996;28;20051;-64
2022/06/01 06:18:34;;;;;;;14.70;13.10;;;;;;;;;;5089006;27;20040;-64
2022/06/01 06:21:00;;;;;;;18.20;13.55;;;;;;;;;;5087806;28;21347;-64
2022/06/01 06:23:27;;;;;;;17.60;14.32;;;;;;;;;;5091134;27;20032;-64
2022/06/01 06:25:53;;;;;;;20.02;13.20;;;;;;;;;;5085422;28;20050;-64
2022/06/01 06:28:19;;;;;;;16.98;12.90;;;;;;;;;;5088175;27;20024;-64
2022/06/01 06:30:46;;;;;;;17.25;13.45;;;;;;;;;;5088917;27;20405;-64
2022/06/01 06:33:12;;;;;;;18.20;13.77;;;;;;;;;;5086107;28;20035;-64
2022/06/01 06:35:38;;;;;;;13.23;11.80;;;;;;;;;;5088118;28;20497;-64
2022/06/01 06:38:05;;;;;;;13.73;12.23;;;;;;;;;;5087666;28;20031;-64
2022/06/01 06:40:31;;;;;;;14.75;12.20;;;;;;;;;;5087635;28;20512;-64
2022/06/01 06:42:58;;;;;;;15.15;13.32;;;;;;;;;;5084838;28;20522;-64
2022/06/01 06:45:24;;;;;;;16.52;13.02;;;;;;;;;;5085591;27;20500;-64
2022/06/01 06:47:50;;;;;;;15.70;11.75;;;;;;;;;;5087143;27;20040;-64
2022/06/01 06:50:17;;;;;;;14.48;11.60;;;;;;;;;;5086773;27;20272;-64
2022/06/01 06:52:43;;;;;;;13.82;12.23;;;;;;;;;;5086033;27;20082;-64
2022/06/01 06:55:10;;;;;;;14.43;12.38;;;;;;;;;;5086441;28;20119;-64
2022/06/01 06:57:36;;;;;;;20.38;11.95;;;;;;;;;;5090339;27;20051;-64
2022/06/01 07:00:04;;;;;;;13.18;10.95;;;;;;;;;;5085196;28;20055;-64
2022/06/01 07:02:30;;;;;;;14.95;13.43;;;;;;;;;;5088457;27;20040;-64
2022/06/01 07:04:56;;;;;;;13.60;11.32;;;;;;;;;;5086423;27;20513;-64
2022/06/01 07:07:23;;;;;;;13.15;11.68;;;;;;;;;;5088516;28;20042;-64
2022/06/01 07:09:49;;;;;;;13.88;12.38;;;;;;;;;;5092143;27;20047;-64
2022/06/01 07:12:15;;;;;;;15.75;11.63;;;;;;;;;;5086280;28;20048;-64
2022/06/01 07:14:41;;;;;;;13.23;10.70;;;;;;;;;;5085586;28;20119;-64
2022/06/01 07:17:07;;;;;;;10.50;9.25;;;;;;;;;;5090275;27;20044;-64
2022/06/01 07:19:33;;;;;;;10.60;8.75;;;;;;;;;;5089575;27;20127;-64
2022/06/01 07:22:00;;;;;;;10.55;9.07;;;;;;;;;;5084940;28;20051;-64
2022/06/01 07:24:26;;;;;;;11.50;9.90;;;;;;;;;;5091734;27;20096;-65
2022/06/01 07:26:53;;;;;;;12.73;10.30;;;;;;;;;;5085032;28;20457;-64
2022/06/01 07:29:19;;;;;;;13.93;9.23;;;;;;;;;;5097483;27;20043;-64
2022/06/01 07:31:46;;;;;;;9.98;8.93;;;;;;;;;;5095859;28;20043;-64
2022/06/01 07:34:13;;;;;;;12.70;8.40;;;;;;;;;;5085774;28;20109;-64
2022/06/01 07:36:39;;;;;;;9.90;8.80;;;;;;;;;;5084364;28;20046;-64
2022/06/01 07:44:45;;;;;;;16.35;9.43;;;;;;;;;;5088991;27;20032;-64
2022/06/01 07:47:12;;;;;;;13.15;8.52;;;;;;;;;;5088300;28;20028;-64
2022/06/01 07:49:38;;;;;;;9.85;8.63;;;;;;;;;;5088412;27;20154;-64
2022/06/01 07:52:06;;;;;;;11.32;8.07;;;;;;;;;;5083396;28;20043;-64
2022/06/01 07:54:32;;;;;;;8.40;7.32;;;;;;;;;;5083618;28;20044;-64
2022/06/01 07:56:58;;;;;;;9.48;7.00;;;;;;;;;;5084168;27;20039;-64
2022/06/01 07:59:24;;;;;;;9.55;7.30;;;;;;;;;;5085301;28;20544;-64
2022/06/01 08:01:50;;;;;;;7.38;6.03;;;;;;;;;;5094982;28;20040;-64
2022/06/01 08:04:16;;;;;;;7.18;5.80;;;;;;;;;;5090098;28;20035;-64
2022/06/01 08:06:43;;;;;;;9.52;6.30;;;;;;;;;;5083562;28;20368;-64
2022/06/01 08:09:09;;;;;;;6.78;5.78;;;;;;;;;;5085583;28;20063;-65
2022/06/01 08:14:36;;;;;;;5.88;5.13;;;;;;;;;;5060268;28;20379;-65
2022/06/01 08:17:03;;;;;;;6.78;5.50;;;;;;;;;;5074934;28;20055;-65
2022/06/01 08:19:29;;;;;;;6.72;5.57;;;;;;;;;;5089584;28;20051;-64
2022/06/01 08:21:55;;;;;;;7.25;5.03;;;;;;;;;;5093593;28;20342;-64
2022/06/01 08:24:21;;;;;;;6.63;5.55;;;;;;;;;;5085780;28;20115;-66
2022/06/01 08:26:48;;;;;;;5.43;4.13;;;;;;;;;;5082096;28;20040;-64
2022/06/01 08:29:15;;;;;;;5.40;4.00;;;;;;;;;;5085540;28;20278;-64
2022/06/01 08:31:41;;;;;;;5.85;3.90;;;;;;;;;;5083549;28;20055;-64
2022/06/01 08:34:08;;;;;;;6.95;3.38;;;;;;;;;;5084788;28;20126;-64
2022/06/01 08:36:35;;;;;;;3.88;3.35;;;;;;;;;;5084829;28;20044;-64
2022/06/01 08:39:01;;;;;;;4.43;3.25;;;;;;;;;;5088430;28;20043;-64
2022/06/01 08:41:35;;;;;;;2.90;1.50;;;;;;;;;;5093089;28;20058;-65
2022/06/01 08:44:06;;;;;;;2.13;1.40;;;;;;;;;;5086444;28;20070;-65
2022/06/01 08:46:34;;;;;;;1.70;1.33;;;;;;;;;;5088037;28;20051;-65
2022/06/01 08:49:02;;;;;;;2.30;1.63;;;;;;;;;;5088845;28;20028;-64
2022/06/01 08:51:30;;;;;;;2.83;1.90;;;;;;;;;;5088712;28;20078;-64
2022/06/01 08:53:58;;;;;;;2.88;2.35;;;;;;;;;;5085654;28;20513;-64
2022/06/01 08:56:40;;;;;;;4.65;3.33;;;;;;;;;;5090412;28;20047;-65
2022/06/01 08:59:22;;;;;;;6.60;3.42;;;;;;;;;;5085002;28;20393;-64
2022/06/01 09:01:55;;;;;;;3.83;2.85;;;;;;;;;;5084939;28;20084;-65
2022/06/01 09:04:28;;;;;;;4.57;3.85;;;;;;;;;;5084793;28;20044;-64
2022/06/01 09:06:58;;;;;;;4.40;3.90;;;;;;;;;;5085008;28;20044;-65
2022/06/01 09:09:35;;;;;;;5.88;4.82;;;;;;;;;;5091860;28;20043;-64
2022/06/01 09:12:02;;;;;;;5.38;3.88;;;;;;;;;;5086237;28;20058;-64
2022/06/01 09:14:33;;;;;;;8.10;4.50;;;;;;;;;;5089394;28;20421;-64
2022/06/01 09:16:59;;;;;;;5.28;4.57;;;;;;;;;;5089437;28;20158;-65
2022/06/01 09:22:37;;;;;;;5.80;4.63;;;;;;;;;;5087458;28;20520;-65
2022/06/01 09:25:02;;;;;;;5.13;3.85;;;;;;;;;;5087292;28;20643;-65
2022/06/01 09:27:39;;;;;;;4.75;3.92;;;;;;;;;;5086989;27;20366;-64
2022/06/01 09:30:18;;;;;;;4.25;3.25;;;;;;;;;;5090039;27;20071;-64
2022/06/01 09:32:58;;;;;;;4.63;3.97;;;;;;;;;;5088357;27;20111;-65
2022/06/01 09:35:27;;;;;;;5.15;4.65;;;;;;;;;;5093294;27;20363;-64
2022/06/01 09:37:53;;;;;;;5.90;4.30;;;;;;;;;;5090448;28;20040;-65
2022/06/01 09:40:33;;;;;;;5.13;4.18;;;;;;;;;;5086054;27;20497;-65
2022/06/01 09:43:00;;;;;;;5.85;4.25;;;;;;;;;;5089144;27;20040;-64
2022/06/01 09:45:28;;;;;;;6.72;4.60;;;;;;;;;;5091516;28;20035;-64
2022/06/01 09:47:55;;;;;;;5.32;4.22;;;;;;;;;;5091471;27;20043;-65
2022/06/01 09:50:21;;;;;;;5.43;3.97;;;;;;;;;;5088820;28;20040;-65
2022/06/01 09:52:48;;;;;;;5.60;4.63;;;;;;;;;;5089593;28;20047;-64
2022/06/01 09:55:14;;;;;;;6.30;4.93;;;;;;;;;;5090463;28;20078;-64
2022/06/01 09:57:40;;;;;;;5.43;4.03;;;;;;;;;;5088204;28;20044;-65
2022/06/01 10:06:09;;;;;;;3.70;2.92;;;;;;;;;;5088416;28;20143;-64
2022/06/01 10:08:42;;;;;;;3.03;2.20;;;;;;;;;;5090275;27;20036;-64
2022/06/01 10:11:08;;;;;;;;;;;;;;;;;;5086116;28;20056;-64
2022/06/01 10:13:36;;;;;;;2.97;2.40;;;;;;;;;;5092199;28;19959;-65
2022/06/01 10:16:14;;;;;;;2.70;2.20;;;;;;;;;;5091790;27;20044;-65
2022/06/01 10:18:42;;;;;;;2.40;1.90;;;;;;;;;;5088427;27;20097;-65
2022/06/01 10:21:12;;;;;;;2.50;2.13;;;;;;;;;;5087530;28;20723;-65
2022/06/01 10:23:57;;;;;;;3.10;1.77;;;;;;;;;;5092620;27;20040;-65
2022/06/01 10:26:29;;;;;;;3.90;2.33;;;;;;;;;;5086334;27;20083;-65
2022/06/01 10:29:05;;;;;;;2.97;2.33;;;;;;;;;;5088047;27;20274;-65
2022/06/01 10:31:35;;;;;;;5.28;2.10;;;;;;;;;;5084820;28;20101;-65
2022/06/01 10:34:20;;;;;;;3.22;2.53;;;;;;;;;;5087541;27;20397;-65
2022/06/01 10:37:09;;;;;;;3.53;2.47;;;;;;;;;;5086598;27;20047;-65
2022/06/01 10:40:09;;;;;;;2.60;1.92;;;;;;;;;;5079022;28;20059;-65
2022/06/01 10:45:45;;;;;;;3.65;2.30;;;;;;;;;;5061262;28;20087;-65
2022/06/01 10:48:15;;;;;;;4.28;2.00;;;;;;;;;;5061861;28;20178;-65
2022/06/01 10:50:54;;;;;;;3.53;2.10;;;;;;;;;;5075067;28;20052;-66
2022/06/01 10:53:48;;;;;;;3.65;2.42;;;;;;;;;;5087623;28;20044;-65
2022/06/01 10:56:15;;;;;;;2.92;1.92;;;;;;;;;;5086192;28;20040;-65
2022/06/01 10:58:42;;;;;;;2.60;1.98;;;;;;;;;;5086570;28;20040;-64
2022/06/01 11:01:09;;;;;;;3.72;2.50;;;;;;;;;;5085491;28;20516;-64
2022/06/01 11:03:47;;;;;;;2.95;2.65;;;;;;;;;;5097837;27;20492;-65
2022/06/01 11:06:22;;;;;;;2.45;1.88;;;;;;;;;;5091865;28;20042;-65
2022/06/01 11:09:15;;;;;;;2.67;1.85;;;;;;;;;;5093019;27;20087;-65
2022/06/01 11:11:51;;;;;;;3.42;2.33;;;;;;;;;;5084692;27;20147;-64
2022/06/01 11:14:23;;;;;;;3.53;2.10;;;;;;;;;;5086942;27;20501;-65
2022/06/01 11:17:01;;;;;;;2.85;2.15;;;;;;;;;;5085747;28;20036;-64
2022/06/01 11:19:30;;;;;;;4.22;2.60;;;;;;;;;;5086753;27;20130;-65
2022/06/01 11:22:15;;;;;;;4.63;2.63;;;;;;;;;;5087253;27;20051;-64
2022/06/01 11:25:00;;;;;;;3.35;2.20;;;;;;;;;;5078529;27;20120;-65
2022/06/01 11:27:26;;;;;;;4.43;2.60;;;;;;;;;;5085833;27;20115;-65
2022/06/01 11:29:53;;;;;;;4.65;2.22;;;;;;;;;;5088992;28;20023;-65
2022/06/01 11:32:26;;;;;;;3.33;2.55;;;;;;;;;;5089249;28;20493;-65
2022/06/01 11:35:05;;;;;;;4.70;2.90;;;;;;;;;;5088101;27;20043;-65
2022/06/01 11:37:39;;;;;;;3.97;2.80;;;;;;;;;;5086285;28;20056;-65
2022/06/01 11:40:12;;;;;;;3.60;2.38;;;;;;;;;;5087762;28;20105;-65
2022/06/01 11:42:38;;;;;;;;;;;;;;;;;;5088574;27;20113;-65
2022/06/01 11:45:13;;;;;;;4.05;2.30;;;;;;;;;;5087548;28;19983;-65
2022/06/01 11:47:46;;;;;;;3.95;2.28;;;;;;;;;;5086093;28;20036;-65
2022/06/01 11:50:15;;;;;;;3.38;2.17;;;;;;;;;;5087803;28;20374;-65
2022/06/01 11:52:44;;;;;;;2.45;1.80;;;;;;;;;;5087786;27;20043;-65
2022/06/01 11:55:12;;;;;;;5.45;2.60;;;;;;;;;;5087185;27;20039;-64
2022/06/01 11:57:45;;;;;;;4.13;2.28;;;;;;;;;;5094644;28;20040;-65
2022/06/01 12:00:16;;;;;;;4.00;2.80;;;;;;;;;;5091091;27;20607;-65
2022/06/01 12:02:45;;;;;;;5.63;2.90;;;;;;;;;;5085877;27;20382;-65
2022/06/01 12:05:13;;;;;;;4.07;2.72;;;;;;;;;;5090572;28;20036;-65
2022/06/01 12:07:50;;;;;;;3.00;2.20;;;;;;;;;;5085165;28;20036;-65
2022/06/01 12:10:25;;;;;;;3.90;2.40;;;;;;;;;;5082852;28;20056;-65
2022/06/01 12:13:00;;;;;;;4.05;2.50;;;;;;;;;;5086717;28;20054;-65
2022/06/01 12:15:34;;;;;;;5.35;3.45;;;;;;;;;;5093022;28;20062;-65
2022/06/01 12:18:06;;;;;;;4.68;2.97;;;;;;;;;;5088611;28;20048;-65
2022/06/01 12:20:32;;;;;;;3.83;2.35;;;;;;;;;;5087786;27;20055;-65
2022/06/01 12:28:56;;;;;;;4.38;3.42;;;;;;;;;;5084888;28;20052;-65
2022/06/01 12:31:26;;;;;;;4.50;3.05;;;;;;;;;;5084073;28;20071;-64
2022/06/01 12:34:02;;;;;;;4.30;3.20;;;;;;;;;;5089370;28;20253;-65
2022/06/01 12:36:31;;;;;;;4.70;3.67;;;;;;;;;;5083984;28;20128;-64
2022/06/01 12:38:59;;;;;;;5.50;4.85;;;;;;;;;;5087330;28;20614;-65
2022/06/01 12:41:34;;;;;;;6.63;4.07;;;;;;;;;;5091182;28;20047;-64
2022/06/01 12:44:05;;;;;;;6.63;4.35;;;;;;;;;;5085125;28;20044;-64
2022/06/01 12:46:32;;;;;;;5.45;3.90;;;;;;;;;;5087770;28;20046;-65
2022/06/01 12:49:17;;;;;;;4.57;3.80;;;;;;;;;;5089595;28;20062;-65
2022/06/01 12:51:43;;;;;;;7.45;3.47;;;;;;;;;;5086615;28;20582;-65
2022/06/01 12:54:09;;;;;;;5.40;3.22;;;;;;;;;;5084905;28;20106;-65
2022/06/01 12:56:37;;;;;;;5.60;4.60;;;;;;;;;;5089197;28;20440;-64
2022/06/01 12:59:13;;;;;;;7.85;4.80;;;;;;;;;;5087067;28;20051;-64
2022/06/01 13:01:39;;;;;;;5.20;4.68;;;;;;;;;;5088821;28;20048;-64
2022/06/01 13:04:05;;;;;;;7.20;4.15;;;;;;;;;;5085380;28;20039;-64
2022/06/01 13:06:33;;;;;;;5.25;4.30;;;;;;;;;;5083289;28;20510;-65
2022/06/01 13:09:00;;;;;;;7.05;4.22;;;;;;;;;;5090290;27;20032;-65
2022/06/01 13:11:28;;;;;;;6.47;4.43;;;;;;;;;;5085813;27;20057;-65
2022/06/01 13:13:57;;;;;;;6.05;3.95;;;;;;;;;;5090014;27;20082;-65
2022/06/01 13:16:32;;;;;;;4.72;4.05;;;;;;;;;;5088259;27;20044;-65
2022/06/01 13:18:58;;;;;;;4.75;3.65;;;;;;;;;;5086350;28;20047;-65
2022/06/01 13:21:29;;;;;;;5.47;3.45;;;;;;;;;;5087140;27;20058;-65
2022/06/01 13:23:57;;;;;;;4.97;3.90;;;;;;;;;;5085066;28;20146;-64
2022/06/01 13:26:44;;;;;;;3.97;3.17;;;;;;;;;;5087444;27;20036;-65
2022/06/01 13:29:21;;;;;;;4.85;3.20;;;;;;;;;;5087009;27;20046;-65
2022/06/01 13:31:49;;;;;;;5.00;3.30;;;;;;;;;;5088930;27;20039;-65
2022/06/01 13:34:29;;;;;;;4.45;2.75;;;;;;;;;;5087591;27;20393;-65
2022/06/01 13:37:03;;;;;;;2.90;2.13;;;;;;;;;;5087148;27;20239;-65
2022/06/01 13:39:30;;;;;;;5.95;2.42;;;;;;;;;;5088796;27;20174;-65
2022/06/01 13:42:00;;;;;;;2.55;1.90;;;;;;;;;;5085660;27;20052;-65
2022/06/01 13:44:44;;;;;;;3.90;2.58;;;;;;;;;;5094010;28;20044;-65
2022/06/01 13:47:11;;;;;;;4.75;2.58;;;;;;;;;;5090118;27;20055;-65
2022/06/01 13:49:40;;;;;;;6.40;3.00;;;;;;;;;;5084682;28;20031;-65
2022/06/01 13:52:07;;;;;;;2.88;2.20;;;;;;;;;;5088475;27;20069;-64
2022/06/01 13:54:36;;;;;;;3.38;2.67;;;;;;;;;;5085322;28;20048;-65
2022/06/01 13:57:05;;;;;;;4.63;3.35;;;;;;;;;;5091312;28;20044;-64
2022/06/01 13:59:35;;;;;;;3.47;2.92;;;;;;;;;;5086094;27;20437;-64
2022/06/01 14:02:13;;;;;;;3.38;2.42;;;;;;;;;;5085651;27;20176;-64
2022/06/01 14:04:41;;;;;;;3.22;2.35;;;;;;;;;;5089239;27;20589;-64
2022/06/01 14:07:12;;;;;;;3.05;2.40;;;;;;;;;;5085707;28;20135;-64
2022/06/01 14:09:44;;;;;;;3.78;2.83;;;;;;;;;;5083983;27;20055;-64
2022/06/01 14:12:11;;;;;;;3.90;2.67;;;;;;;;;;5088906;27;20056;-64
2022/06/01 14:14:39;;;;;;;4.63;2.38;;;;;;;;;;5084659;27;20051;-65
2022/06/01 14:17:10;;;;;;;2.72;1.95;;;;;;;;;;5083171;28;20555;-64
2022/06/01 14:19:37;;;;;;;4.25;2.75;;;;;;;;;;5085772;27;20562;-64
2022/06/01 14:22:04;;;;;;;2.10;1.65;;;;;;;;;;5087006;28;20079;-64
2022/06/01 14:29:59;;;;;;;2.95;1.83;;;;;;;;;;5085924;28;20051;-64
2022/06/01 14:32:26;;;;;;;3.28;2.00;;;;;;;;;;5084982;28;20087;-64
2022/06/01 14:34:52;;;;;;;3.25;1.80;;;;;;;;;;5084312;28;20047;-64
2022/06/01 14:37:18;;;;;;;3.83;1.88;;;;;;;;;;5084165;28;20870;-64
2022/06/01 14:39:44;;;;;;;2.63;1.65;;;;;;;;;;5084285;27;20077;-65
2022/06/01 14:42:11;;;;;;;2.50;1.70;;;;;;;;;;5084594;28;20558;-64
2022/06/01 14:44:37;;;;;;;2.20;1.67;;;;;;;;;;5087526;27;20047;-64
2022/06/01 14:47:03;;;;;;;2.88;1.85;;;;;;;;;;5086144;27;20143;-64
2022/06/01 14:49:29;;;;;;;4.30;2.03;;;;;;;;;;5085034;28;20218;-65
2022/06/01 14:51:57;;;;;;;4.45;2.20;;;;;;;;;;5084950;27;20600;-65
2022/06/01 14:54:24;;;;;;;3.60;2.28;;;;;;;;;;5086915;27;20036;-64
2022/06/01 14:56:50;;;;;;;5.47;2.78;;;;;;;;;;5086925;28;20151;-65
2022/06/01 14:59:17;;;;;;;3.00;2.25;;;;;;;;;;5086695;27;20144;-65
2022/06/01 15:01:46;;;;;;;3.65;2.50;;;;;;;;;;5087606;27;20483;-65
2022/06/01 15:04:13;;;;;;;2.45;1.95;;;;;;;;;;5086596;28;20043;-64
2022/06/01 15:06:40;;;;;;;2.97;2.17;;;;;;;;;;5086258;28;20062;-64
2022/06/01 15:09:06;;;;;;;4.25;2.65;;;;;;;;;;5084376;27;20405;-64
2022/06/01 15:11:33;;;;;;;3.38;2.33;;;;;;;;;;5089866;27;20083;-64
2022/06/01 15:14:00;;;;;;;2.88;2.30;;;;;;;;;;5087085;28;20276;-64
2022/06/01 15:16:27;;;;;;;4.90;2.20;;;;;;;;;;5086697;28;20612;-64
2022/06/01 15:18:54;;;;;;;3.47;2.30;;;;;;;;;;5088860;27;20079;-65
2022/06/01 15:21:20;;;;;;;4.10;2.75;;;;;;;;;;5083464;28;22010;-65
2022/06/01 15:23:46;;;;;;;4.35;2.22;;;;;;;;;;5083728;28;20097;-65
2022/06/01 15:26:13;;;;;;;3.65;2.97;;;;;;;;;;5081452;28;20081;-65